Detalii statie AGRALMIXT [00001CED]

Toti senzorii

Date Temperatura solului [C]Precipitatii [mm]Voltaj baterie [mV]Leaf Wetness [Min]HC Air temperature [C]HC Relative humidity [%]Punctul de roua [C]
medieminmaxsumaultimatimpmedieminmaxmediemediemin
2017-12-10 21:00:00 0 6834 -2.08 -3.32 -0.67 83.66 -4.3 -5
2017-12-10 22:00:00 0 6816 -3.31 -3.6 -2.92 90.5 -4.5 -4.9
2017-12-10 23:00:00 0 6826 -3.66 -3.93 -3.43 93.16 -4.5 -4.9
2017-12-11 00:00:00 0 6806 -3.39 -4.11 -2.76 90.42 -4.6 -5.4
2017-12-11 01:00:00 0 6796 -2.85 -3.26 -2.45 87.68 -4.5 -4.9
2017-12-11 02:00:00 0 6816 -3.45 -3.89 -2.79 88.63 -4.9 -5.6
2017-12-11 03:00:00 0 6806 -1.5 -2.67 -0.72 85.21 -3.5 -4.1
2017-12-11 04:00:00 0 6816 -0.35 -0.63 -0.11 80.34 -3.2 -3.4
2017-12-11 05:00:00 0 6816 -0.23 -0.31 -0.11 81.89 -2.8 -3.2
2017-12-11 06:00:00 0 6816 -0.07 -0.24 0.01 82.37 -2.6 -2.8
2017-12-11 07:00:00 0 6806 0.06 -0.03 0.15 82.11 -2.6 -2.8
2017-12-11 08:00:00 0 6816 1.02 0.35 1.65 75.02 -2.9 -3.5
2017-12-11 09:00:00 0 6914 1.73 1.46 2.03 67.82 -3.6 -3.8
2017-12-11 10:00:00 0 6932 1.81 1.52 2.26 69.71 -3.2 -3.8
2017-12-11 11:00:00 0 7000 1.96 1.5 2.2 73.66 -2.2 -2.4
2017-12-11 12:00:00 0 7206 2.56 2.16 2.91 73.15 -1.8 -2.5
2017-12-11 13:00:00 0 7332 3.54 2.95 4.01 72.53 -0.9 -1.4
2017-12-11 14:00:00 0.2 7236 3.54 3.28 4.02 73.58 -0.7 -1.1
2017-12-11 15:00:00 0 7166 3.26 3.11 3.41 79.77 0 -0.4
2017-12-11 16:00:00 0.2 6992 3.31 2.51 3.96 84.49 0.8 0
2017-12-11 17:00:00 0 6904 2.68 2.07 3.19 88.4 0.8 0.2
2017-12-11 18:00:00 0 6884 2.43 1.39 3.11 90.22 0.8 0.1
2017-12-11 19:00:00 0 6864 2.05 1.66 2.57 93.59 1 0.7
2017-12-11 20:00:00 0 6854 2.42 1.99 2.79 89.74 0.8 0.4
2017-12-11 21:00:00 0 6834 2.07 1.83 2.39 90.07 0.5 0.3
2017-12-11 22:00:00 0 6826 2.28 2.1 2.5 89.64 0.6 0.5
2017-12-11 23:00:00 0.2 6826 2.3 1.82 3.13 89.76 0.6 0.2
2017-12-12 00:00:00 0 6816 2.51 2.11 3.01 88.38 0.7 0.3
2017-12-12 01:00:00 0 6816 2.32 1.52 2.84 90.09 0.7 0.1
2017-12-12 02:00:00 0 6816 2.09 1.81 2.37 92.41 0.8 0.6
2017-12-12 03:00:00 0 6816 2.23 1.94 2.43 92.29 0.9 0.7
2017-12-12 04:00:00 0 6816 2.36 2.18 2.58 90.92 0.9 0.6
2017-12-12 05:00:00 0 6816 2.86 2.51 3.38 88.36 1 0.5
2017-12-12 06:00:00 0 6806 1.81 1.38 2.11 91.35 0.4 0
2017-12-12 07:00:00 0 6806 1.07 0.72 1.62 95.36 0.2 0.1
2017-12-12 08:00:00 0 6806 0.76 0.42 1.26 97.7 0.3 0
2017-12-12 09:00:00 0 6894 2.03 0.71 2.74 93.97 1 0.4
2017-12-12 10:00:00 0 7254 3.19 2.68 3.77 87.26 1.2 0.7
2017-12-12 11:00:00 0 7342 4.96 4.01 5.33 80.71 1.8 1.5
2017-12-12 12:00:00 0 7314 5.63 5.34 6.04 79.26 2.2 1.8
2017-12-12 13:00:00 0 7314 6.38 6.11 6.82 80.53 3.1 2.7
2017-12-12 14:00:00 0 7304 7.16 6.99 7.37 80.47 3.8 3.6
2017-12-12 15:00:00 0 7166 7.1 7 7.3 82.92 4.2 4.1
2017-12-12 16:00:00 0 7000 6.18 5.33 6.88 85.37 3.8 3.2
2017-12-12 17:00:00 0 6922 5.09 4.32 5.44 88.65 3.2 2.7
2017-12-12 18:00:00 0 6894 3.99 3.13 5.03 91.62 2.6 2.1
2017-12-12 19:00:00 0 6874 3.16 2.34 3.69 96.26 2.5 1.6
2017-12-12 20:00:00 0 6864 2.29 1.67 2.65 98.76 2 1.5